sensor_id;sensor_type;location;lat;lon;timestamp;temperature;humidity
14126;DHT22;7141;49.484;11.242;2023-06-22T05:22:20;24.00;44.50
14126;DHT22;7141;49.484;11.242;2023-06-22T05:27:12;20.00;99.90
14126;DHT22;7141;49.484;11.242;2023-06-22T05:32:04;20.00;99.90
14126;DHT22;7141;49.484;11.242;2023-06-22T05:34:30;20.10;99.90
14126;DHT22;7141;49.484;11.242;2023-06-22T05:36:55;20.20;99.90
14126;DHT22;7141;49.484;11.242;2023-06-22T05:39:24;20.30;99.90
14126;DHT22;7141;49.484;11.242;2023-06-22T05:41:49;20.40;99.90
14126;DHT22;7141;49.484;11.242;2023-06-22T05:44:15;20.50;99.90
14126;DHT22;7141;49.484;11.242;2023-06-22T05:46:42;20.50;99.90
14126;DHT22;7141;49.484;11.242;2023-06-22T05:49:15;20.60;99.90
14126;DHT22;7141;49.484;11.242;2023-06-22T05:51:42;20.70;99.90
14126;DHT22;7141;49.484;11.242;2023-06-22T05:54:07;20.80;99.90
14126;DHT22;7141;49.484;11.242;2023-06-22T05:56:34;20.90;99.90
14126;DHT22;7141;49.484;11.242;2023-06-22T05:58:59;21.00;99.90
14126;DHT22;7141;49.484;11.242;2023-06-22T06:01:25;21.00;99.90
14126;DHT22;7141;49.484;11.242;2023-06-22T06:03:52;21.10;99.90
14126;DHT22;7141;49.484;11.242;2023-06-22T06:06:19;21.30;99.90
14126;DHT22;7141;49.484;11.242;2023-06-22T06:08:53;21.40;99.90
14126;DHT22;7141;49.484;11.242;2023-06-22T06:11:19;21.60;99.90
14126;DHT22;7141;49.484;11.242;2023-06-22T06:13:45;21.50;99.90
14126;DHT22;7141;49.484;11.242;2023-06-22T06:16:10;21.60;99.90
14126;DHT22;7141;49.484;11.242;2023-06-22T06:18:36;21.80;99.90
14126;DHT22;7141;49.484;11.242;2023-06-22T06:21:02;21.90;99.90
14126;DHT22;7141;49.484;11.242;2023-06-22T06:23:28;21.90;99.90
14126;DHT22;7141;49.484;11.242;2023-06-22T06:25:54;22.00;99.90
14126;DHT22;7141;49.484;11.242;2023-06-22T06:28:19;22.20;99.90
14126;DHT22;7141;49.484;11.242;2023-06-22T06:30:45;22.30;99.90
14126;DHT22;7141;49.484;11.242;2023-06-22T06:33:12;22.40;99.90
14126;DHT22;7141;49.484;11.242;2023-06-22T06:35:38;22.40;99.90
14126;DHT22;7141;49.484;11.242;2023-06-22T06:38:04;22.50;99.90
14126;DHT22;7141;49.484;11.242;2023-06-22T06:40:29;22.60;99.90
14126;DHT22;7141;49.484;11.242;2023-06-22T06:42:55;22.70;99.90
14126;DHT22;7141;49.484;11.242;2023-06-22T06:45:22;22.80;99.90
14126;DHT22;7141;49.484;11.242;2023-06-22T06:47:48;22.90;99.90
14126;DHT22;7141;49.484;11.242;2023-06-22T06:50:14;23.00;99.90
14126;DHT22;7141;49.484;11.242;2023-06-22T06:52:40;23.00;99.90
14126;DHT22;7141;49.484;11.242;2023-06-22T06:55:07;23.10;99.90
14126;DHT22;7141;49.484;11.242;2023-06-22T06:57:35;23.20;99.90
14126;DHT22;7141;49.484;11.242;2023-06-22T07:00:03;23.20;99.90
14126;DHT22;7141;49.484;11.242;2023-06-22T07:02:34;23.30;99.90
14126;DHT22;7141;49.484;11.242;2023-06-22T07:05:00;23.50;99.90
14126;DHT22;7141;49.484;11.242;2023-06-22T07:07:25;23.60;99.90
14126;DHT22;7141;49.484;11.242;2023-06-22T07:09:51;23.60;99.90
14126;DHT22;7141;49.484;11.242;2023-06-22T07:12:16;23.70;99.90
14126;DHT22;7141;49.484;11.242;2023-06-22T07:14:42;23.80;99.90
14126;DHT22;7141;49.484;11.242;2023-06-22T07:17:08;23.80;99.90
14126;DHT22;7141;49.484;11.242;2023-06-22T07:19:33;23.90;99.90
14126;DHT22;7141;49.484;11.242;2023-06-22T07:21:59;24.00;99.90
14126;DHT22;7141;49.484;11.242;2023-06-22T07:24:24;24.10;99.90
14126;DHT22;7141;49.484;11.242;2023-06-22T07:26:50;24.10;99.90
14126;DHT22;7141;49.484;11.242;2023-06-22T07:29:17;24.20;99.90
14126;DHT22;7141;49.484;11.242;2023-06-22T07:31:43;24.30;99.90
14126;DHT22;7141;49.484;11.242;2023-06-22T07:34:08;24.30;99.90
14126;DHT22;7141;49.484;11.242;2023-06-22T07:36:34;24.40;99.90
14126;DHT22;7141;49.484;11.242;2023-06-22T07:39:04;24.60;99.90
14126;DHT22;7141;49.484;11.242;2023-06-22T07:41:30;24.70;99.90
14126;DHT22;7141;49.484;11.242;2023-06-22T07:43:56;24.80;99.90
14126;DHT22;7141;49.484;11.242;2023-06-22T07:46:22;25.00;99.90
14126;DHT22;7141;49.484;11.242;2023-06-22T07:48:47;25.00;99.90
14126;DHT22;7141;49.484;11.242;2023-06-22T07:51:13;25.10;99.90
14126;DHT22;7141;49.484;11.242;2023-06-22T07:53:43;25.10;99.90
14126;DHT22;7141;49.484;11.242;2023-06-22T07:56:12;25.20;99.90
14126;DHT22;7141;49.484;11.242;2023-06-22T07:58:38;25.10;99.90
14126;DHT22;7141;49.484;11.242;2023-06-22T08:01:04;25.30;99.90
14126;DHT22;7141;49.484;11.242;2023-06-22T08:03:30;25.50;99.90
14126;DHT22;7141;49.484;11.242;2023-06-22T08:05:55;25.40;99.90
14126;DHT22;7141;49.484;11.242;2023-06-22T08:08:21;25.60;99.90
14126;DHT22;7141;49.484;11.242;2023-06-22T08:10:47;25.70;99.90
14126;DHT22;7141;49.484;11.242;2023-06-22T08:13:12;25.80;99.90
14126;DHT22;7141;49.484;11.242;2023-06-22T08:15:38;25.90;99.90
14126;DHT22;7141;49.484;11.242;2023-06-22T08:18:03;26.00;99.90
14126;DHT22;7141;49.484;11.242;2023-06-22T08:20:29;26.20;99.90
14126;DHT22;7141;49.484;11.242;2023-06-22T08:22:55;26.30;99.90
14126;DHT22;7141;49.484;11.242;2023-06-22T08:25:23;26.30;99.90
14126;DHT22;7141;49.484;11.242;2023-06-22T08:27:48;26.40;99.90
14126;DHT22;7141;49.484;11.242;2023-06-22T08:30:14;26.60;99.90
14126;DHT22;7141;49.484;11.242;2023-06-22T08:32:40;26.80;99.90
14126;DHT22;7141;49.484;11.242;2023-06-22T08:35:06;26.90;99.90
14126;DHT22;7141;49.484;11.242;2023-06-22T08:37:34;27.00;99.90
14126;DHT22;7141;49.484;11.242;2023-06-22T08:40:02;27.00;99.90
14126;DHT22;7141;49.484;11.242;2023-06-22T08:42:30;27.20;99.90
14126;DHT22;7141;49.484;11.242;2023-06-22T08:44:56;27.40;99.90
14126;DHT22;7141;49.484;11.242;2023-06-22T08:47:22;27.40;98.90
14126;DHT22;7141;49.484;11.242;2023-06-22T08:49:48;27.50;98.40
14126;DHT22;7141;49.484;11.242;2023-06-22T08:52:14;27.60;98.20
14126;DHT22;7141;49.484;11.242;2023-06-22T08:54:40;27.70;98.20
14126;DHT22;7141;49.484;11.242;2023-06-22T08:57:06;27.70;97.90
14126;DHT22;7141;49.484;11.242;2023-06-22T08:59:31;27.80;97.40
14126;DHT22;7141;49.484;11.242;2023-06-22T09:01:57;27.90;97.50
14126;DHT22;7141;49.484;11.242;2023-06-22T09:04:22;27.80;95.90
14126;DHT22;7141;49.484;11.242;2023-06-22T09:06:51;27.90;96.10
14126;DHT22;7141;49.484;11.242;2023-06-22T09:09:18;28.00;94.30
14126;DHT22;7141;49.484;11.242;2023-06-22T09:11:44;28.20;93.50
14126;DHT22;7141;49.484;11.242;2023-06-22T09:14:10;28.40;92.60
14126;DHT22;7141;49.484;11.242;2023-06-22T09:16:36;28.40;90.80
14126;DHT22;7141;49.484;11.242;2023-06-22T09:19:01;28.60;90.70
14126;DHT22;7141;49.484;11.242;2023-06-22T09:21:27;28.70;92.50
14126;DHT22;7141;49.484;11.242;2023-06-22T09:23:52;28.80;90.80
14126;DHT22;7141;49.484;11.242;2023-06-22T09:26:18;28.90;90.70
14126;DHT22;7141;49.484;11.242;2023-06-22T09:28:44;28.90;89.00
14126;DHT22;7141;49.484;11.242;2023-06-22T09:31:10;29.10;89.20
14126;DHT22;7141;49.484;11.242;2023-06-22T09:33:36;29.30;88.10
14126;DHT22;7141;49.484;11.242;2023-06-22T09:36:04;29.40;85.70
14126;DHT22;7141;49.484;11.242;2023-06-22T09:38:34;29.50;85.70
14126;DHT22;7141;49.484;11.242;2023-06-22T09:41:00;29.70;85.80
14126;DHT22;7141;49.484;11.242;2023-06-22T09:43:26;29.70;82.80
14126;DHT22;7141;49.484;11.242;2023-06-22T09:45:52;29.90;82.80
14126;DHT22;7141;49.484;11.242;2023-06-22T09:48:18;29.90;82.60
14126;DHT22;7141;49.484;11.242;2023-06-22T09:50:43;29.90;80.50
14126;DHT22;7141;49.484;11.242;2023-06-22T09:53:09;30.00;81.30
14126;DHT22;7141;49.484;11.242;2023-06-22T09:55:35;30.00;81.00
